createdAt,value
2017-08-05T00:00:53.595Z,98846.64
2017-08-05T00:03:25.900Z,98855.86
2017-08-05T00:05:58.081Z,98853.18
2017-08-05T00:08:30.031Z,98847.73
2017-08-05T00:11:01.959Z,98848.14
2017-08-05T00:13:33.924Z,98853.28
2017-08-05T00:16:06.093Z,98853.36
2017-08-05T00:18:38.514Z,98813.52
2017-08-05T00:21:13.013Z,98848.42
2017-08-05T00:23:45.471Z,98849.98
2017-08-05T00:26:21.695Z,98794.80
2017-08-05T00:28:54.060Z,98846.08
2017-08-05T00:31:27.306Z,98848.44
2017-08-05T00:33:59.297Z,98840.25
2017-08-05T00:36:31.638Z,98845.05
2017-08-05T00:39:03.853Z,98845.28
2017-08-05T00:41:35.872Z,98858.20
2017-08-05T00:44:08.332Z,98841.53
2017-08-05T00:46:40.877Z,98840.38
2017-08-05T00:49:15.644Z,98840.98
2017-08-05T00:51:48.337Z,98815.60
2017-08-05T00:54:21.206Z,98845.27
2017-08-05T00:56:53.943Z,98841.73
2017-08-05T00:59:26.785Z,98851.97
2017-08-05T01:02:00.150Z,98842.61
2017-08-05T01:04:33.075Z,98848.74
2017-08-05T01:07:08.926Z,98828.38
2017-08-05T01:09:41.100Z,98857.28
2017-08-05T01:12:16.116Z,98877.94
2017-08-05T01:14:48.889Z,98860.28
2017-08-05T01:17:20.873Z,98875.73
2017-08-05T01:19:53.229Z,98867.46
2017-08-05T01:22:26.948Z,98864.15
2017-08-05T01:24:59.146Z,98863.60
2017-08-05T01:27:31.166Z,98848.95
2017-08-05T01:30:04.407Z,98856.11
2017-08-05T01:32:37.220Z,98851.09
2017-08-05T01:35:09.224Z,98850.36
2017-08-05T01:37:41.754Z,98849.19
2017-08-05T01:40:17.531Z,98840.44
2017-08-05T01:42:50.462Z,98837.98
2017-08-05T01:45:27.818Z,98810.58
2017-08-05T01:48:03.071Z,98812.23
2017-08-05T01:50:35.931Z,98845.32
2017-08-05T01:53:08.805Z,98845.14
2017-08-05T01:55:41.116Z,98853.82
2017-08-05T01:58:21.526Z,98844.11
2017-08-05T02:00:58.091Z,98807.11
2017-08-05T02:03:34.519Z,98792.54
2017-08-05T02:08:56.474Z,98841.77
2017-08-05T02:11:35.867Z,98785.81
2017-08-05T02:14:10.484Z,98865.00
2017-08-05T02:16:45.311Z,98871.69
2017-08-05T02:19:21.145Z,98898.58
2017-08-05T02:21:53.130Z,98855.94
2017-08-05T02:24:25.928Z,98869.08
2017-08-05T02:26:58.276Z,98868.71
2017-08-05T02:29:30.766Z,98865.70
2017-08-05T02:32:03.589Z,98856.88
2017-08-05T02:34:36.440Z,98856.95
2017-08-05T02:37:08.791Z,98848.53
2017-08-05T02:39:45.230Z,98850.91
2017-08-05T02:42:19.972Z,98848.47
2017-08-05T02:44:52.823Z,98845.06
2017-08-05T02:47:25.823Z,98837.42
2017-08-05T02:49:58.747Z,98843.17
2017-08-05T02:52:31.945Z,98831.75
2017-08-05T02:55:04.813Z,98836.86
2017-08-05T02:57:36.699Z,98833.23
2017-08-05T03:00:09.755Z,98833.33
2017-08-05T03:02:41.914Z,98831.29
2017-08-05T03:05:16.411Z,98830.56
2017-08-05T03:07:48.665Z,98830.41
2017-08-05T03:10:22.559Z,98830.88
2017-08-05T03:12:54.969Z,98830.88
2017-08-05T03:15:27.961Z,98829.99
2017-08-05T03:18:00.685Z,98810.72
2017-08-05T03:20:33.071Z,98823.00
2017-08-05T03:23:05.654Z,98829.05
2017-08-05T03:25:39.331Z,98826.13
2017-08-05T03:28:13.503Z,98815.82
2017-08-05T03:30:46.291Z,98816.86
2017-08-05T03:33:22.455Z,98773.17
2017-08-05T03:35:55.356Z,98809.74
2017-08-05T03:38:27.821Z,98818.90
2017-08-05T03:41:00.761Z,98817.16
2017-08-05T03:43:33.850Z,98818.59
2017-08-05T03:46:06.381Z,98815.67
2017-08-05T03:48:38.853Z,98778.03
2017-08-05T03:51:13.494Z,98813.85
2017-08-05T03:53:46.276Z,98816.62
2017-08-05T03:56:20.672Z,98778.58
2017-08-05T03:58:53.551Z,98806.49
2017-08-05T04:01:26.429Z,98809.63
2017-08-05T04:03:59.937Z,98807.44
2017-08-05T04:06:32.573Z,98807.07
2017-08-05T04:09:05.332Z,98800.22
2017-08-05T04:11:38.283Z,98788.06
2017-08-05T04:14:13.494Z,98798.67
2017-08-05T04:16:45.850Z,98802.23
2017-08-05T04:19:20.106Z,98797.61
2017-08-05T04:21:52.975Z,98806.95
2017-08-05T04:24:25.556Z,98806.95
2017-08-05T04:26:58.855Z,98809.23
2017-08-05T04:29:31.241Z,98794.66
2017-08-05T04:32:04.134Z,98813.39
2017-08-05T04:34:36.762Z,98816.31
2017-08-05T04:37:09.212Z,98814.03
2017-08-05T04:39:41.866Z,98806.00
2017-08-05T04:42:19.652Z,98813.34
2017-08-05T04:44:51.821Z,98812.81
2017-08-05T04:47:24.477Z,98824.58
2017-08-05T04:49:57.065Z,98804.56
2017-08-05T04:52:29.646Z,98807.48
2017-08-05T04:55:03.382Z,98801.88
2017-08-05T04:57:36.032Z,98803.00
2017-08-05T05:00:08.450Z,98750.80
2017-08-05T05:02:40.715Z,98811.50
2017-08-05T05:05:14.918Z,98797.72
2017-08-05T05:07:47.069Z,98833.86
2017-08-05T05:10:20.607Z,98790.25
2017-08-05T05:12:54.606Z,98814.70
2017-08-05T05:15:28.290Z,98810.45
2017-08-05T05:18:02.525Z,98810.99
2017-08-05T05:20:36.074Z,98812.15
2017-08-05T05:23:08.529Z,98797.89
2017-08-05T05:25:41.528Z,98807.25
2017-08-05T05:28:16.780Z,98786.21
2017-08-05T05:30:49.804Z,98808.20
2017-08-05T05:33:22.355Z,98804.82
2017-08-05T05:35:55.451Z,98800.25
2017-08-05T05:38:28.262Z,98801.84
2017-08-05T05:41:02.002Z,98826.23
2017-08-05T05:43:34.988Z,98799.71
2017-08-05T05:46:07.325Z,98798.53
2017-08-05T05:48:40.028Z,98789.25
2017-08-05T05:51:14.153Z,98788.43
2017-08-05T05:53:47.301Z,98790.34
2017-08-05T05:56:20.589Z,98762.77
2017-08-05T05:58:53.399Z,98776.09
2017-08-05T06:01:26.212Z,98777.61
2017-08-05T06:03:58.182Z,98767.47
2017-08-05T06:06:32.469Z,98767.02
2017-08-05T06:09:06.551Z,98702.50
2017-08-05T06:11:39.962Z,98746.00
2017-08-05T06:16:53.212Z,98755.30
2017-08-05T06:19:25.554Z,98752.59
2017-08-05T06:21:58.343Z,98638.28
2017-08-05T06:24:31.548Z,98752.13
2017-08-05T06:27:04.481Z,98712.50
2017-08-05T06:29:37.676Z,98750.32
2017-08-05T06:32:16.027Z,98751.59
2017-08-05T06:34:49.011Z,98745.94
2017-08-05T06:37:21.561Z,98740.48
2017-08-05T06:40:02.406Z,98760.72
2017-08-05T06:42:35.280Z,98750.56
2017-08-05T06:45:07.444Z,98738.16
2017-08-05T06:47:40.151Z,98760.14
2017-08-05T06:50:14.144Z,98760.61
2017-08-05T06:52:46.411Z,98751.48
2017-08-05T06:55:19.676Z,98723.13
2017-08-05T06:57:52.059Z,98753.24
2017-08-05T07:00:24.639Z,98751.56
2017-08-05T07:02:57.359Z,98736.70
2017-08-05T07:05:29.429Z,98741.20
2017-08-05T07:08:01.831Z,98742.75
2017-08-05T07:10:34.329Z,98741.94
2017-08-05T07:13:07.296Z,98748.64
2017-08-05T07:15:39.648Z,98732.03
2017-08-05T07:18:14.454Z,98728.66
2017-08-05T07:20:47.829Z,98734.08
2017-08-05T07:23:19.833Z,98731.16
2017-08-05T07:25:51.833Z,98726.39
2017-08-05T07:28:23.820Z,98729.39
2017-08-05T07:30:57.749Z,98728.92
2017-08-05T07:33:30.909Z,98723.51
2017-08-05T07:36:05.841Z,98721.81
2017-08-05T07:38:38.895Z,98713.17
2017-08-05T07:41:15.261Z,98718.39
2017-08-05T07:43:47.444Z,98714.73
2017-08-05T07:46:23.920Z,98721.94
2017-08-05T07:49:05.928Z,98713.18
2017-08-05T07:51:40.799Z,98717.83
2017-08-05T07:54:16.634Z,98726.16
2017-08-05T07:56:50.447Z,98719.10
2017-08-05T07:59:22.647Z,98711.09
2017-08-05T08:01:55.155Z,98706.16
2017-08-05T08:04:27.747Z,98713.93
2017-08-05T08:07:01.806Z,98716.50
2017-08-05T08:09:34.969Z,98717.01
2017-08-05T08:12:08.124Z,98695.77
2017-08-05T08:14:40.225Z,98706.77
2017-08-05T08:17:14.954Z,98676.31
2017-08-05T08:19:48.238Z,98700.08
2017-08-05T08:22:20.254Z,98681.83
2017-08-05T08:24:52.302Z,98704.38
2017-08-05T08:27:24.187Z,98698.30
2017-08-05T08:29:56.279Z,98699.81
2017-08-05T08:32:28.311Z,98701.02
2017-08-05T08:35:00.991Z,98701.88
2017-08-05T08:37:33.178Z,98696.20
2017-08-05T08:40:05.713Z,98695.79
2017-08-05T08:42:37.911Z,98691.23
2017-08-05T08:45:11.236Z,98693.50
2017-08-05T08:47:46.444Z,98694.64
2017-08-05T08:50:21.925Z,98564.27
2017-08-05T08:52:56.624Z,98694.22
2017-08-05T08:55:29.248Z,98703.80
2017-08-05T08:58:01.721Z,98666.47
2017-08-05T09:00:35.956Z,98682.55
2017-08-05T09:03:08.468Z,98704.56
2017-08-05T09:05:42.496Z,98703.61
2017-08-05T09:08:20.489Z,98699.13
2017-08-05T09:10:52.808Z,98698.75
2017-08-05T09:13:26.201Z,98695.51
2017-08-05T09:15:59.408Z,98695.47
2017-08-05T09:18:31.490Z,98683.69
2017-08-05T09:21:03.614Z,98672.60
2017-08-05T09:23:36.393Z,98661.53
2017-08-05T09:26:10.298Z,98659.05
2017-08-05T09:28:42.900Z,98654.84
2017-08-05T09:31:19.577Z,98651.20
2017-08-05T09:33:52.564Z,98648.69
2017-08-05T09:36:24.810Z,98652.88
2017-08-05T09:38:57.669Z,98656.06
2017-08-05T09:41:30.248Z,98645.83
2017-08-05T09:44:02.494Z,98626.16
2017-08-05T09:46:34.476Z,98654.88
2017-08-05T09:49:07.165Z,98648.91
2017-08-05T09:51:39.273Z,98638.41
2017-08-05T09:54:11.301Z,98631.20
2017-08-05T09:56:46.169Z,98638.72
2017-08-05T09:59:19.921Z,98633.51
2017-08-05T10:01:52.236Z,98629.09
2017-08-05T10:04:24.301Z,98620.17
2017-08-05T10:06:57.904Z,98628.94
2017-08-05T10:09:30.158Z,98613.80
2017-08-05T10:12:02.150Z,98620.80
2017-08-05T10:14:35.442Z,98597.64
2017-08-05T10:17:07.840Z,98607.08
2017-08-05T10:19:40.019Z,98635.31
2017-08-05T10:22:15.143Z,98646.14
2017-08-05T10:24:47.664Z,98634.77
2017-08-05T10:27:20.641Z,98627.59
2017-08-05T10:29:52.573Z,98626.18
2017-08-05T10:32:24.836Z,98615.31
2017-08-05T10:34:56.906Z,98591.77
2017-08-05T10:37:28.829Z,98622.49
2017-08-05T10:40:01.614Z,98608.31
2017-08-05T10:42:34.632Z,98613.31
2017-08-05T10:45:07.012Z,98606.09
2017-08-05T10:47:39.651Z,98621.91
2017-08-05T10:50:14.387Z,98607.53
2017-08-05T10:52:46.975Z,98617.59
2017-08-05T10:55:19.817Z,98601.78
2017-08-05T10:57:51.721Z,98600.00
2017-08-05T11:00:23.640Z,98594.98
2017-08-05T11:02:55.617Z,98590.35
2017-08-05T11:05:27.668Z,98577.59
2017-08-05T11:07:59.951Z,98593.95
2017-08-05T11:10:31.899Z,98584.72
2017-08-05T11:13:03.929Z,98582.70
2017-08-05T11:15:36.294Z,98567.27
2017-08-05T11:18:08.328Z,98568.39
2017-08-05T11:20:40.614Z,98568.92
2017-08-05T11:23:20.104Z,98531.27
2017-08-05T11:25:52.930Z,98561.70
2017-08-05T11:28:25.604Z,98556.41
2017-08-05T11:30:58.567Z,98583.44
2017-08-05T11:33:32.174Z,98556.15
2017-08-05T11:36:04.166Z,98562.59
2017-08-05T11:38:37.583Z,98566.20
2017-08-05T11:41:10.754Z,98556.98
2017-08-05T11:43:45.645Z,98560.15
2017-08-05T11:46:20.993Z,98493.84
2017-08-05T11:48:53.207Z,98565.84
2017-08-05T11:51:41.234Z,98575.88
2017-08-05T11:54:19.902Z,98555.19
2017-08-05T11:56:53.532Z,98549.78
2017-08-05T11:59:30.989Z,98546.26
2017-08-05T12:02:07.732Z,98549.92
2017-08-05T12:04:43.290Z,98553.98
2017-08-05T12:07:19.511Z,98549.50
2017-08-05T12:09:53.249Z,98560.02
2017-08-05T12:12:26.422Z,98559.41
2017-08-05T12:14:58.803Z,98559.84
2017-08-05T12:17:31.890Z,98562.09
2017-08-05T12:20:04.050Z,98568.98
2017-08-05T12:22:36.102Z,98570.73
2017-08-05T12:25:08.391Z,98577.06
2017-08-05T12:27:41.794Z,98607.88
2017-08-05T12:30:16.920Z,98585.41
2017-08-05T12:32:49.706Z,98605.00
2017-08-05T12:35:21.605Z,98557.79
2017-08-05T12:37:53.694Z,98597.70
2017-08-05T12:40:26.026Z,98598.61
2017-08-05T12:42:58.050Z,98593.68
2017-08-05T12:45:30.148Z,98593.55
2017-08-05T12:48:02.407Z,98604.20
2017-08-05T12:50:34.821Z,98614.57
2017-08-05T12:53:08.167Z,98583.98
2017-08-05T12:56:07.254Z,98575.33
2017-08-05T12:58:56.833Z,98604.78
2017-08-05T13:01:45.811Z,98605.34
2017-08-05T13:04:32.971Z,98573.24
2017-08-05T13:07:08.955Z,98610.86
2017-08-05T13:09:40.959Z,98611.28
2017-08-05T13:12:16.119Z,98602.39
2017-08-05T13:14:48.205Z,98591.42
2017-08-05T13:17:20.704Z,98569.47
2017-08-05T13:19:52.829Z,98595.89
2017-08-05T13:22:25.632Z,98600.23
2017-08-05T13:24:57.908Z,98602.52
2017-08-05T13:27:29.839Z,98594.06
2017-08-05T13:30:03.012Z,98591.44
2017-08-05T13:32:35.077Z,98585.73
2017-08-05T13:35:09.232Z,98596.58
2017-08-05T13:37:41.808Z,98590.16
2017-08-05T13:40:16.610Z,98583.64
2017-08-05T13:42:49.306Z,98591.99
2017-08-05T13:45:21.154Z,98573.58
2017-08-05T13:47:53.605Z,98586.95
2017-08-05T13:50:27.361Z,98594.19
2017-08-05T13:52:59.588Z,98571.84
2017-08-05T13:55:31.750Z,98555.42
2017-08-05T13:58:04.329Z,98561.81
2017-08-05T14:00:37.271Z,98577.70
2017-08-05T14:03:09.563Z,98581.15
2017-08-05T14:05:42.518Z,98577.31
2017-08-05T14:08:18.116Z,98589.88
2017-08-05T14:10:50.368Z,98576.50
2017-08-05T14:13:22.753Z,98592.89
2017-08-05T14:15:54.897Z,98596.49
2017-08-05T14:18:26.966Z,98596.09
2017-08-05T14:21:00.741Z,98592.38
2017-08-05T14:23:32.747Z,98570.66
2017-08-05T14:26:04.939Z,98579.73
2017-08-05T14:28:36.928Z,98590.71
2017-08-05T14:31:09.185Z,98570.27
2017-08-05T14:33:41.693Z,98572.48
2017-08-05T14:36:15.958Z,98577.66
2017-08-05T14:38:51.023Z,98573.24
2017-08-05T14:41:23.722Z,98553.98
2017-08-05T14:43:55.705Z,98580.77
2017-08-05T14:46:27.680Z,98584.02
2017-08-05T14:49:00.274Z,98582.13
2017-08-05T14:51:34.208Z,98579.97
2017-08-05T14:54:06.758Z,98590.19
2017-08-05T14:56:38.797Z,98590.74
2017-08-05T14:59:13.520Z,98576.19
2017-08-05T15:01:45.592Z,98590.02
2017-08-05T15:04:20.748Z,98605.05
2017-08-05T15:06:54.151Z,98615.50
2017-08-05T15:09:26.229Z,98645.77
2017-08-05T15:11:59.654Z,98641.73
2017-08-05T15:14:32.528Z,98645.83
2017-08-05T15:17:05.605Z,98661.41
2017-08-05T15:19:38.495Z,98648.91
2017-08-05T15:22:10.649Z,98648.84
2017-08-05T15:24:44.243Z,98661.44
2017-08-05T15:27:16.194Z,98674.66
2017-08-05T15:29:49.266Z,98681.60
2017-08-05T15:32:21.773Z,98661.80
2017-08-05T15:34:53.750Z,98672.88
2017-08-05T15:37:26.141Z,98671.19
2017-08-05T15:39:58.542Z,98701.92
2017-08-05T15:42:30.583Z,98672.64
2017-08-05T15:45:03.054Z,98668.00
2017-08-05T15:47:35.040Z,98668.68
2017-08-05T15:50:10.050Z,98647.20
2017-08-05T15:52:42.200Z,98646.72
2017-08-05T15:55:14.617Z,98654.71
2017-08-05T15:57:47.545Z,98661.50
2017-08-05T16:00:19.637Z,98661.04
2017-08-05T16:02:51.911Z,98672.70
2017-08-05T16:05:24.237Z,98677.63
2017-08-05T16:07:57.728Z,98686.08
2017-08-05T16:10:30.205Z,98681.16
2017-08-05T16:13:02.463Z,98652.83
2017-08-05T16:15:34.830Z,98684.97
2017-08-05T16:18:08.266Z,98679.03
2017-08-05T16:20:40.319Z,98674.37
2017-08-05T16:23:13.098Z,98668.05
2017-08-05T16:25:45.162Z,98663.69
2017-08-05T16:28:18.144Z,98666.27
2017-08-05T16:30:50.509Z,98664.25
2017-08-05T16:33:22.779Z,98663.07
2017-08-05T16:35:55.099Z,98673.59
2017-08-05T16:38:27.795Z,98670.38
2017-08-05T16:40:59.958Z,98699.78
2017-08-05T16:43:32.946Z,98688.27
2017-08-05T16:46:05.118Z,98702.53
2017-08-05T16:48:37.225Z,98693.52
2017-08-05T16:51:09.597Z,98664.80
2017-08-05T16:53:41.912Z,98706.70
2017-08-05T16:57:08.110Z,98709.88
2017-08-05T16:59:40.276Z,98708.31
2017-08-05T17:02:12.311Z,98713.59
2017-08-05T17:04:44.706Z,98712.42
2017-08-05T17:07:17.209Z,98695.34
2017-08-05T17:09:50.460Z,98712.29
2017-08-05T17:12:22.640Z,98710.52
2017-08-05T17:14:54.906Z,98717.89
2017-08-05T17:20:18.273Z,98720.09
2017-08-05T17:22:51.474Z,98722.39
2017-08-05T17:25:26.008Z,98731.44
2017-08-05T17:27:58.745Z,98740.69
2017-08-05T17:30:31.285Z,98722.02
2017-08-05T17:33:04.335Z,98729.27
2017-08-05T17:35:36.818Z,98741.92
2017-08-05T17:38:09.446Z,98738.05
2017-08-05T17:40:43.113Z,98732.73
2017-08-05T17:43:15.551Z,98732.75
2017-08-05T17:45:47.665Z,98730.88
2017-08-05T17:48:20.120Z,98739.21
2017-08-05T17:50:52.388Z,98740.45
2017-08-05T17:53:25.346Z,98744.27
2017-08-05T17:55:57.827Z,98729.88
2017-08-05T17:58:29.893Z,98741.92
2017-08-05T18:01:02.017Z,98731.55
2017-08-05T18:03:41.144Z,98783.26
2017-08-05T18:06:13.220Z,98739.87
2017-08-05T18:09:44.402Z,98772.88
2017-08-05T18:12:17.046Z,98765.92
2017-08-05T18:14:49.468Z,98779.37
2017-08-05T18:17:21.516Z,98791.52
2017-08-05T18:19:53.907Z,98772.30
2017-08-05T18:22:25.995Z,98780.39
2017-08-05T18:24:58.025Z,98788.63
2017-08-05T18:27:30.135Z,98784.05
2017-08-05T18:30:02.598Z,98808.22
2017-08-05T18:32:35.237Z,98816.90
2017-08-05T18:35:08.135Z,98811.30
2017-08-05T18:37:40.232Z,98795.70
2017-08-05T18:40:13.573Z,98808.33
2017-08-05T18:42:46.474Z,98807.28
2017-08-05T18:45:19.459Z,98820.31
2017-08-05T18:47:51.586Z,98822.88
2017-08-05T18:50:25.324Z,98828.73
2017-08-05T18:52:57.332Z,98855.69
2017-08-05T18:55:30.104Z,98858.03
2017-08-05T18:58:02.224Z,98860.06
2017-08-05T19:00:34.987Z,98860.43
2017-08-05T19:03:07.502Z,98871.69
2017-08-05T19:05:39.606Z,98882.33
2017-08-05T19:08:12.469Z,98861.76
2017-08-05T19:10:44.970Z,98871.82
2017-08-05T19:13:21.810Z,98825.63
2017-08-05T19:15:55.045Z,98889.52
2017-08-05T19:18:27.550Z,98888.21
2017-08-05T19:21:01.739Z,98881.55
2017-08-05T19:23:34.325Z,98897.78
2017-08-05T19:26:07.740Z,98900.44
2017-08-05T19:28:40.944Z,98915.38
2017-08-05T19:31:15.830Z,98916.80
2017-08-05T19:33:54.504Z,98922.41
2017-08-05T19:36:30.096Z,98937.19
2017-08-05T19:39:03.346Z,98938.25
2017-08-05T19:41:37.055Z,98942.41
2017-08-05T19:44:10.612Z,98947.94
2017-08-05T19:46:42.942Z,98948.92
2017-08-05T19:49:15.391Z,98940.50
2017-08-05T19:51:49.061Z,98947.11
2017-08-05T19:54:21.118Z,98960.97
2017-08-05T19:56:55.865Z,98956.98
2017-08-05T19:59:28.070Z,98965.71
2017-08-05T20:02:01.297Z,98945.32
2017-08-05T20:04:33.581Z,98968.25
2017-08-05T20:07:05.843Z,98962.91
2017-08-05T20:09:38.734Z,98969.31
2017-08-05T20:12:13.537Z,98967.61
2017-08-05T20:14:46.164Z,98974.88
2017-08-05T20:17:18.983Z,98976.46
2017-08-05T20:19:51.430Z,98961.84
2017-08-05T20:22:35.451Z,98979.15
2017-08-05T20:25:07.932Z,98971.48
2017-08-05T20:27:40.442Z,98959.34
2017-08-05T20:30:13.106Z,98972.89
2017-08-05T20:32:45.138Z,98988.11
2017-08-05T20:35:17.102Z,98990.61
2017-08-05T20:37:49.732Z,98983.57
2017-08-05T20:40:21.969Z,98986.27
2017-08-05T20:42:57.206Z,98977.28
2017-08-05T20:45:29.627Z,98987.68
2017-08-05T20:48:01.755Z,98995.94
2017-08-05T20:50:33.908Z,98993.98
2017-08-05T20:53:06.171Z,99014.66
2017-08-05T20:55:38.439Z,99004.10
2017-08-05T20:58:10.559Z,98973.11
2017-08-05T21:00:42.922Z,99009.20
2017-08-05T21:03:15.002Z,99015.48
2017-08-05T21:05:47.199Z,99015.16
2017-08-05T21:08:19.258Z,99014.66
2017-08-05T21:10:53.749Z,99009.47
2017-08-05T21:13:26.765Z,99022.54
2017-08-05T21:16:02.083Z,98976.76
2017-08-05T21:18:34.951Z,99023.11
2017-08-05T21:21:07.344Z,99026.96
2017-08-05T21:23:39.554Z,99033.49
2017-08-05T21:26:11.645Z,99035.47
2017-08-05T21:28:43.653Z,99042.19
2017-08-05T21:31:15.663Z,99026.37
2017-08-05T21:33:48.642Z,99036.50
2017-08-05T21:36:20.715Z,99042.33
2017-08-05T21:38:55.398Z,99044.86
2017-08-05T21:41:27.589Z,99046.18
2017-08-05T21:44:01.323Z,99024.97
2017-08-05T21:46:33.680Z,99055.16
2017-08-05T21:49:05.783Z,99060.52
2017-08-05T21:51:38.085Z,99062.17
2017-08-05T21:54:10.204Z,99061.59
2017-08-05T21:56:42.469Z,99070.17
2017-08-05T21:59:14.631Z,99072.70
2017-08-05T22:01:46.857Z,99071.44
2017-08-05T22:04:19.575Z,99075.80
2017-08-05T22:06:57.921Z,99063.75
2017-08-05T22:09:30.625Z,99079.66
2017-08-05T22:12:02.970Z,99078.94
2017-08-05T22:14:35.368Z,99087.41
2017-08-05T22:17:07.371Z,99081.95
2017-08-05T22:19:39.455Z,99084.63
2017-08-05T22:22:11.700Z,99092.30
2017-08-05T22:24:43.844Z,99091.11
2017-08-05T22:27:16.274Z,99092.37
2017-08-05T22:29:48.320Z,99101.28
2017-08-05T22:32:20.344Z,99105.41
2017-08-05T22:34:55.523Z,99099.02
2017-08-05T22:37:27.574Z,99105.53
2017-08-05T22:40:00.735Z,99068.66
2017-08-05T22:42:33.321Z,99116.32
2017-08-05T22:45:06.488Z,99123.31
2017-08-05T22:47:38.720Z,99124.17
2017-08-05T22:50:11.328Z,99118.00
2017-08-05T22:52:43.668Z,99132.78
2017-08-05T23:00:50.168Z,99130.48
2017-08-05T23:03:24.056Z,99137.19
2017-08-05T23:05:58.724Z,99137.28
2017-08-05T23:08:31.203Z,99122.11
2017-08-05T23:11:03.489Z,99127.64
2017-08-05T23:13:35.682Z,99127.81
2017-08-05T23:16:08.462Z,99149.98
2017-08-05T23:18:40.995Z,99140.10
2017-08-05T23:21:13.704Z,99143.34
2017-08-05T23:23:46.051Z,99149.98
2017-08-05T23:26:18.725Z,99162.13
2017-08-05T23:28:51.503Z,99154.50
2017-08-05T23:31:26.957Z,99153.88
2017-08-05T23:34:00.641Z,99128.38
2017-08-05T23:36:32.550Z,99162.87
2017-08-05T23:39:06.119Z,99166.72
2017-08-05T23:41:38.862Z,99162.55
2017-08-05T23:44:11.065Z,99166.58
2017-08-05T23:46:43.341Z,99167.38
2017-08-05T23:49:15.363Z,99174.86
2017-08-05T23:51:48.284Z,99166.89
2017-08-05T23:54:20.203Z,99163.96
2017-08-05T23:56:54.381Z,99181.41
2017-08-05T23:59:27.813Z,99179.92
